sensor_id;sensor_type;location;lat;lon;timestamp;temperature;humidity
52895;DHT22;38759;53.396;6.722;2023-04-01T00:00:18;9.70;99.90
52895;DHT22;38759;53.396;6.722;2023-04-01T00:02:44;9.70;99.90
52895;DHT22;38759;53.396;6.722;2023-04-01T00:05:11;9.70;99.90
52895;DHT22;38759;53.396;6.722;2023-04-01T00:07:38;9.70;99.90
52895;DHT22;38759;53.396;6.722;2023-04-01T00:10:10;9.70;99.90
52895;DHT22;38759;53.396;6.722;2023-04-01T00:12:36;9.70;99.90
52895;DHT22;38759;53.396;6.722;2023-04-01T00:15:03;9.70;99.90
52895;DHT22;38759;53.396;6.722;2023-04-01T00:17:30;9.70;99.90
52895;DHT22;38759;53.396;6.722;2023-04-01T00:19:57;9.70;99.90
52895;DHT22;38759;53.396;6.722;2023-04-01T00:22:23;9.70;99.90
52895;DHT22;38759;53.396;6.722;2023-04-01T00:24:49;9.60;99.90
52895;DHT22;38759;53.396;6.722;2023-04-01T00:27:15;9.70;99.90
52895;DHT22;38759;53.396;6.722;2023-04-01T00:29:45;9.70;99.90
52895;DHT22;38759;53.396;6.722;2023-04-01T00:32:12;9.60;99.90
52895;DHT22;38759;53.396;6.722;2023-04-01T00:34:38;9.70;99.90
52895;DHT22;38759;53.396;6.722;2023-04-01T00:37:05;9.60;99.90
52895;DHT22;38759;53.396;6.722;2023-04-01T00:39:31;9.60;99.90
52895;DHT22;38759;53.396;6.722;2023-04-01T00:41:58;9.60;99.90
52895;DHT22;38759;53.396;6.722;2023-04-01T00:44:28;9.60;99.90
52895;DHT22;38759;53.396;6.722;2023-04-01T00:46:54;9.60;99.90
52895;DHT22;38759;53.396;6.722;2023-04-01T00:49:23;9.60;99.90
52895;DHT22;38759;53.396;6.722;2023-04-01T00:51:53;9.60;99.90
52895;DHT22;38759;53.396;6.722;2023-04-01T00:54:21;9.60;99.90
52895;DHT22;38759;53.396;6.722;2023-04-01T00:57:00;9.60;99.90
52895;DHT22;38759;53.396;6.722;2023-04-01T00:59:30;9.60;99.90
52895;DHT22;38759;53.396;6.722;2023-04-01T01:01:58;9.60;99.90
52895;DHT22;38759;53.396;6.722;2023-04-01T01:04:27;9.60;99.90
52895;DHT22;38759;53.396;6.722;2023-04-01T01:21:37;9.50;99.90
52895;DHT22;38759;53.396;6.722;2023-04-01T01:24:13;9.50;99.90
52895;DHT22;38759;53.396;6.722;2023-04-01T01:36:59;9.60;99.90
52895;DHT22;38759;53.396;6.722;2023-04-01T01:39:29;9.60;99.90
52895;DHT22;38759;53.396;6.722;2023-04-01T01:42:00;9.60;99.90
52895;DHT22;38759;53.396;6.722;2023-04-01T01:44:28;9.60;99.90
52895;DHT22;38759;53.396;6.722;2023-04-01T01:46:56;9.60;99.90
52895;DHT22;38759;53.396;6.722;2023-04-01T01:49:22;9.60;99.90
52895;DHT22;38759;53.396;6.722;2023-04-01T01:51:49;9.60;99.90
52895;DHT22;38759;53.396;6.722;2023-04-01T01:54:16;9.50;99.90
52895;DHT22;38759;53.396;6.722;2023-04-01T01:56:46;9.60;99.90
52895;DHT22;38759;53.396;6.722;2023-04-01T01:59:15;9.60;99.90
52895;DHT22;38759;53.396;6.722;2023-04-01T02:01:43;9.50;99.90
52895;DHT22;38759;53.396;6.722;2023-04-01T02:04:11;9.60;99.90
52895;DHT22;38759;53.396;6.722;2023-04-01T02:06:39;9.50;99.90
52895;DHT22;38759;53.396;6.722;2023-04-01T02:09:08;9.60;99.90
52895;DHT22;38759;53.396;6.722;2023-04-01T02:14:13;9.60;99.90
52895;DHT22;38759;53.396;6.722;2023-04-01T02:16:49;9.60;99.90
52895;DHT22;38759;53.396;6.722;2023-04-01T02:19:18;9.60;99.90
52895;DHT22;38759;53.396;6.722;2023-04-01T02:21:52;9.60;99.90
52895;DHT22;38759;53.396;6.722;2023-04-01T02:24:19;9.60;99.90
52895;DHT22;38759;53.396;6.722;2023-04-01T02:26:49;9.60;99.90
52895;DHT22;38759;53.396;6.722;2023-04-01T02:29:20;9.50;99.90
52895;DHT22;38759;53.396;6.722;2023-04-01T02:31:47;9.60;99.90
52895;DHT22;38759;53.396;6.722;2023-04-01T02:34:14;9.50;99.90
52895;DHT22;38759;53.396;6.722;2023-04-01T02:36:39;9.50;99.90
52895;DHT22;38759;53.396;6.722;2023-04-01T02:39:06;9.50;99.90
52895;DHT22;38759;53.396;6.722;2023-04-01T02:41:39;9.50;99.90
52895;DHT22;38759;53.396;6.722;2023-04-01T02:44:05;9.60;99.90
52895;DHT22;38759;53.396;6.722;2023-04-01T02:46:31;9.50;99.90
52895;DHT22;38759;53.396;6.722;2023-04-01T02:48:56;9.60;99.90
52895;DHT22;38759;53.396;6.722;2023-04-01T02:51:22;9.50;99.90
52895;DHT22;38759;53.396;6.722;2023-04-01T02:53:47;9.50;99.90
52895;DHT22;38759;53.396;6.722;2023-04-01T02:56:13;9.50;99.90
52895;DHT22;38759;53.396;6.722;2023-04-01T02:58:39;9.50;99.90
52895;DHT22;38759;53.396;6.722;2023-04-01T03:01:05;9.60;99.90
52895;DHT22;38759;53.396;6.722;2023-04-01T03:03:31;9.50;99.90
52895;DHT22;38759;53.396;6.722;2023-04-01T03:05:56;9.50;99.90
52895;DHT22;38759;53.396;6.722;2023-04-01T03:08:24;9.50;99.90
52895;DHT22;38759;53.396;6.722;2023-04-01T03:10:49;9.50;99.90
52895;DHT22;38759;53.396;6.722;2023-04-01T03:13:15;9.50;99.90
52895;DHT22;38759;53.396;6.722;2023-04-01T03:15:41;9.50;99.90
52895;DHT22;38759;53.396;6.722;2023-04-01T03:18:07;9.50;99.90
52895;DHT22;38759;53.396;6.722;2023-04-01T03:20:32;9.50;99.90
52895;DHT22;38759;53.396;6.722;2023-04-01T03:22:58;9.50;99.90
52895;DHT22;38759;53.396;6.722;2023-04-01T03:25:24;9.50;99.90
52895;DHT22;38759;53.396;6.722;2023-04-01T03:27:50;9.50;99.90
52895;DHT22;38759;53.396;6.722;2023-04-01T03:30:15;9.50;99.90
52895;DHT22;38759;53.396;6.722;2023-04-01T03:32:41;9.50;99.90
52895;DHT22;38759;53.396;6.722;2023-04-01T03:35:07;9.50;99.90
52895;DHT22;38759;53.396;6.722;2023-04-01T03:37:35;9.50;99.90
52895;DHT22;38759;53.396;6.722;2023-04-01T03:40:00;9.50;99.90
52895;DHT22;38759;53.396;6.722;2023-04-01T03:42:26;9.50;99.90
52895;DHT22;38759;53.396;6.722;2023-04-01T03:44:52;9.50;99.90
52895;DHT22;38759;53.396;6.722;2023-04-01T03:47:17;9.50;99.90
52895;DHT22;38759;53.396;6.722;2023-04-01T03:49:43;9.50;99.90
52895;DHT22;38759;53.396;6.722;2023-04-01T03:52:10;9.50;99.90
52895;DHT22;38759;53.396;6.722;2023-04-01T03:54:36;9.50;99.90
52895;DHT22;38759;53.396;6.722;2023-04-01T03:57:02;9.50;99.90
52895;DHT22;38759;53.396;6.722;2023-04-01T03:59:28;9.50;99.90
52895;DHT22;38759;53.396;6.722;2023-04-01T04:01:53;9.50;99.90
52895;DHT22;38759;53.396;6.722;2023-04-01T04:04:19;9.50;99.90
52895;DHT22;38759;53.396;6.722;2023-04-01T04:06:45;9.50;99.90
52895;DHT22;38759;53.396;6.722;2023-04-01T04:09:11;9.50;99.90
52895;DHT22;38759;53.396;6.722;2023-04-01T04:11:36;9.50;99.90
52895;DHT22;38759;53.396;6.722;2023-04-01T04:14:02;9.50;99.90
52895;DHT22;38759;53.396;6.722;2023-04-01T04:16:28;9.50;99.90
52895;DHT22;38759;53.396;6.722;2023-04-01T04:18:54;9.50;99.90
52895;DHT22;38759;53.396;6.722;2023-04-01T04:21:19;9.50;99.90
52895;DHT22;38759;53.396;6.722;2023-04-01T04:23:45;9.50;99.90
52895;DHT22;38759;53.396;6.722;2023-04-01T04:26:13;9.50;99.90
52895;DHT22;38759;53.396;6.722;2023-04-01T04:28:39;9.50;99.90
52895;DHT22;38759;53.396;6.722;2023-04-01T04:31:05;9.50;99.90
52895;DHT22;38759;53.396;6.722;2023-04-01T04:33:32;9.50;99.90
52895;DHT22;38759;53.396;6.722;2023-04-01T04:35:58;9.50;99.90
52895;DHT22;38759;53.396;6.722;2023-04-01T04:38:25;9.50;99.90
52895;DHT22;38759;53.396;6.722;2023-04-01T04:40:51;9.50;99.90
52895;DHT22;38759;53.396;6.722;2023-04-01T04:43:17;9.50;99.90
52895;DHT22;38759;53.396;6.722;2023-04-01T04:45:44;9.50;99.90
52895;DHT22;38759;53.396;6.722;2023-04-01T04:48:11;9.50;99.90
52895;DHT22;38759;53.396;6.722;2023-04-01T04:50:42;9.50;99.90
52895;DHT22;38759;53.396;6.722;2023-04-01T04:53:15;9.40;99.90
52895;DHT22;38759;53.396;6.722;2023-04-01T04:55:48;9.50;99.90
52895;DHT22;38759;53.396;6.722;2023-04-01T04:58:14;9.40;99.90
52895;DHT22;38759;53.396;6.722;2023-04-01T05:00:40;9.40;99.90
52895;DHT22;38759;53.396;6.722;2023-04-01T05:03:06;9.50;99.90
52895;DHT22;38759;53.396;6.722;2023-04-01T05:05:32;9.50;99.90
52895;DHT22;38759;53.396;6.722;2023-04-01T05:07:58;9.40;99.90
52895;DHT22;38759;53.396;6.722;2023-04-01T05:10:23;9.40;99.90
52895;DHT22;38759;53.396;6.722;2023-04-01T05:12:49;9.40;99.90
52895;DHT22;38759;53.396;6.722;2023-04-01T05:15:15;9.40;99.90
52895;DHT22;38759;53.396;6.722;2023-04-01T05:17:41;9.40;99.90
52895;DHT22;38759;53.396;6.722;2023-04-01T05:20:07;9.40;99.90
52895;DHT22;38759;53.396;6.722;2023-04-01T05:22:33;9.50;99.90
52895;DHT22;38759;53.396;6.722;2023-04-01T05:24:59;9.50;99.90
52895;DHT22;38759;53.396;6.722;2023-04-01T05:27:24;9.40;99.90
52895;DHT22;38759;53.396;6.722;2023-04-01T05:29:50;9.50;99.90
52895;DHT22;38759;53.396;6.722;2023-04-01T05:32:16;9.50;99.90
52895;DHT22;38759;53.396;6.722;2023-04-01T05:34:42;9.50;99.90
52895;DHT22;38759;53.396;6.722;2023-04-01T05:37:08;9.50;99.90
52895;DHT22;38759;53.396;6.722;2023-04-01T05:39:37;9.50;99.90
52895;DHT22;38759;53.396;6.722;2023-04-01T05:42:05;9.50;99.90
52895;DHT22;38759;53.396;6.722;2023-04-01T05:44:31;9.50;99.90
52895;DHT22;38759;53.396;6.722;2023-04-01T05:46:57;9.50;99.90
52895;DHT22;38759;53.396;6.722;2023-04-01T05:49:23;9.50;99.90
52895;DHT22;38759;53.396;6.722;2023-04-01T05:51:48;9.50;99.90
52895;DHT22;38759;53.396;6.722;2023-04-01T05:54:14;9.50;99.90
52895;DHT22;38759;53.396;6.722;2023-04-01T05:56:40;9.60;99.90
52895;DHT22;38759;53.396;6.722;2023-04-01T05:59:05;9.60;99.90
52895;DHT22;38759;53.396;6.722;2023-04-01T06:01:31;9.60;99.90
52895;DHT22;38759;53.396;6.722;2023-04-01T06:03:57;9.60;99.90
52895;DHT22;38759;53.396;6.722;2023-04-01T06:06:28;9.60;99.90
52895;DHT22;38759;53.396;6.722;2023-04-01T06:08:56;9.70;99.90
52895;DHT22;38759;53.396;6.722;2023-04-01T06:11:37;9.60;99.90
52895;DHT22;38759;53.396;6.722;2023-04-01T06:14:29;9.70;99.90
52895;DHT22;38759;53.396;6.722;2023-04-01T06:20:04;9.70;99.90
52895;DHT22;38759;53.396;6.722;2023-04-01T06:25:53;9.70;99.90
52895;DHT22;38759;53.396;6.722;2023-04-01T06:34:40;9.70;99.90
52895;DHT22;38759;53.396;6.722;2023-04-01T06:37:14;9.70;99.90
52895;DHT22;38759;53.396;6.722;2023-04-01T06:39:58;9.70;99.90
52895;DHT22;38759;53.396;6.722;2023-04-01T06:47:43;9.80;99.90
52895;DHT22;38759;53.396;6.722;2023-04-01T06:50:29;9.90;99.90
52895;DHT22;38759;53.396;6.722;2023-04-01T06:53:25;10.00;99.90
52895;DHT22;38759;53.396;6.722;2023-04-01T06:56:02;10.00;99.90
52895;DHT22;38759;53.396;6.722;2023-04-01T06:58:39;10.10;99.90
52895;DHT22;38759;53.396;6.722;2023-04-01T07:01:14;10.10;99.90
52895;DHT22;38759;53.396;6.722;2023-04-01T07:03:49;10.10;99.90
52895;DHT22;38759;53.396;6.722;2023-04-01T07:06:30;10.10;99.90
52895;DHT22;38759;53.396;6.722;2023-04-01T07:08:59;10.20;99.90
52895;DHT22;38759;53.396;6.722;2023-04-01T07:11:31;10.30;99.90
52895;DHT22;38759;53.396;6.722;2023-04-01T07:19:24;10.30;99.90
52895;DHT22;38759;53.396;6.722;2023-04-01T07:22:14;10.30;99.90
52895;DHT22;38759;53.396;6.722;2023-04-01T07:24:45;10.30;99.90
52895;DHT22;38759;53.396;6.722;2023-04-01T07:27:13;10.30;99.90
52895;DHT22;38759;53.396;6.722;2023-04-01T07:29:39;10.30;99.90
52895;DHT22;38759;53.396;6.722;2023-04-01T07:46:08;10.30;99.90
52895;DHT22;38759;53.396;6.722;2023-04-01T08:00:30;10.10;99.90
52895;DHT22;38759;53.396;6.722;2023-04-01T08:06:19;10.00;99.90
52895;DHT22;38759;53.396;6.722;2023-04-01T08:09:11;10.00;99.90
52895;DHT22;38759;53.396;6.722;2023-04-01T08:17:20;10.00;99.90
52895;DHT22;38759;53.396;6.722;2023-04-01T08:20:03;9.90;99.90
52895;DHT22;38759;53.396;6.722;2023-04-01T08:22:40;9.90;99.90
52895;DHT22;38759;53.396;6.722;2023-04-01T08:25:15;9.90;99.90
52895;DHT22;38759;53.396;6.722;2023-04-01T08:27:45;9.90;99.90
52895;DHT22;38759;53.396;6.722;2023-04-01T08:30:20;9.90;99.90
52895;DHT22;38759;53.396;6.722;2023-04-01T08:33:21;9.90;99.90
52895;DHT22;38759;53.396;6.722;2023-04-01T08:38:29;9.80;99.90
52895;DHT22;38759;53.396;6.722;2023-04-01T08:40:58;9.70;99.90
52895;DHT22;38759;53.396;6.722;2023-04-01T08:46:26;9.70;99.90
52895;DHT22;38759;53.396;6.722;2023-04-01T08:56:50;9.90;99.90
52895;DHT22;38759;53.396;6.722;2023-04-01T08:59:43;9.90;99.90
52895;DHT22;38759;53.396;6.722;2023-04-01T09:22:01;9.40;99.90
52895;DHT22;38759;53.396;6.722;2023-04-01T09:36:07;9.30;99.90
52895;DHT22;38759;53.396;6.722;2023-04-01T09:55:28;9.20;99.90
52895;DHT22;38759;53.396;6.722;2023-04-01T10:03:54;9.30;99.90
52895;DHT22;38759;53.396;6.722;2023-04-01T10:09:30;9.40;99.90
52895;DHT22;38759;53.396;6.722;2023-04-01T10:37:33;9.20;99.90
52895;DHT22;38759;53.396;6.722;2023-04-01T10:51:01;9.30;99.90
52895;DHT22;38759;53.396;6.722;2023-04-01T11:02:41;9.50;99.90
52895;DHT22;38759;53.396;6.722;2023-04-01T11:24:58;9.40;99.90
52895;DHT22;38759;53.396;6.722;2023-04-01T11:35:59;9.50;99.90
52895;DHT22;38759;53.396;6.722;2023-04-01T11:44:12;9.60;99.90
52895;DHT22;38759;53.396;6.722;2023-04-01T12:06:23;9.60;99.90
52895;DHT22;38759;53.396;6.722;2023-04-01T12:28:41;9.70;99.90
52895;DHT22;38759;53.396;6.722;2023-04-01T12:37:33;9.70;99.90
52895;DHT22;38759;53.396;6.722;2023-04-01T13:01:01;9.60;99.90
52895;DHT22;38759;53.396;6.722;2023-04-01T13:23:33;9.60;99.90
52895;DHT22;38759;53.396;6.722;2023-04-01T13:28:37;9.50;99.90
52895;DHT22;38759;53.396;6.722;2023-04-01T13:39:41;9.30;99.90
52895;DHT22;38759;53.396;6.722;2023-04-01T13:47:50;9.10;99.90
52895;DHT22;38759;53.396;6.722;2023-04-01T13:53:36;9.10;99.90
52895;DHT22;38759;53.396;6.722;2023-04-01T13:58:49;9.10;99.90
52895;DHT22;38759;53.396;6.722;2023-04-01T14:01:42;9.10;99.90
52895;DHT22;38759;53.396;6.722;2023-04-01T14:07:18;9.00;99.90
52895;DHT22;38759;53.396;6.722;2023-04-01T14:12:56;9.00;99.90
52895;DHT22;38759;53.396;6.722;2023-04-01T14:15:35;9.00;99.90
52895;DHT22;38759;53.396;6.722;2023-04-01T14:20:37;8.90;99.90
52895;DHT22;38759;53.396;6.722;2023-04-01T14:34:16;8.60;99.90
52895;DHT22;38759;53.396;6.722;2023-04-01T14:42:59;8.40;99.90
52895;DHT22;38759;53.396;6.722;2023-04-01T14:50:53;8.40;99.90
52895;DHT22;38759;53.396;6.722;2023-04-01T14:55:54;8.30;99.90
52895;DHT22;38759;53.396;6.722;2023-04-01T15:21:23;7.90;99.90
52895;DHT22;38759;53.396;6.722;2023-04-01T15:24:17;7.90;99.90
52895;DHT22;38759;53.396;6.722;2023-04-01T15:32:21;7.80;99.90
52895;DHT22;38759;53.396;6.722;2023-04-01T15:40:22;7.60;99.90
52895;DHT22;38759;53.396;6.722;2023-04-01T15:43:21;7.60;99.90
52895;DHT22;38759;53.396;6.722;2023-04-01T15:54:32;7.50;99.90
52895;DHT22;38759;53.396;6.722;2023-04-01T16:02:32;7.40;99.90
52895;DHT22;38759;53.396;6.722;2023-04-01T16:21:14;7.20;99.90
52895;DHT22;38759;53.396;6.722;2023-04-01T16:24:00;7.10;99.90
52895;DHT22;38759;53.396;6.722;2023-04-01T16:30:03;7.10;99.90
52895;DHT22;38759;53.396;6.722;2023-04-01T16:38:25;7.00;99.90
52895;DHT22;38759;53.396;6.722;2023-04-01T16:43:55;7.00;99.90
52895;DHT22;38759;53.396;6.722;2023-04-01T16:51:32;7.00;99.90
52895;DHT22;38759;53.396;6.722;2023-04-01T17:02:12;6.80;99.90
52895;DHT22;38759;53.396;6.722;2023-04-01T17:04:48;6.80;99.90
52895;DHT22;38759;53.396;6.722;2023-04-01T17:23:43;6.60;99.90
52895;DHT22;38759;53.396;6.722;2023-04-01T17:26:36;6.50;99.90
52895;DHT22;38759;53.396;6.722;2023-04-01T17:31:57;6.50;99.90
52895;DHT22;38759;53.396;6.722;2023-04-01T17:34:33;6.50;99.90
52895;DHT22;38759;53.396;6.722;2023-04-01T17:37:36;6.50;99.90
52895;DHT22;38759;53.396;6.722;2023-04-01T17:45:49;6.50;99.90
52895;DHT22;38759;53.396;6.722;2023-04-01T17:48:46;6.50;99.90
52895;DHT22;38759;53.396;6.722;2023-04-01T17:56:47;6.40;99.90
52895;DHT22;38759;53.396;6.722;2023-04-01T17:59:37;6.30;99.90
52895;DHT22;38759;53.396;6.722;2023-04-01T18:13:37;6.20;99.90
52895;DHT22;38759;53.396;6.722;2023-04-01T18:19:08;6.20;99.90
52895;DHT22;38759;53.396;6.722;2023-04-01T18:25:32;6.10;99.90
52895;DHT22;38759;53.396;6.722;2023-04-01T18:27:36;6.10;99.90
52895;DHT22;38759;53.396;6.722;2023-04-01T18:30:07;6.20;99.90
52895;DHT22;38759;53.396;6.722;2023-04-01T18:38:57;6.00;99.90
52895;DHT22;38759;53.396;6.722;2023-04-01T18:44:25;6.00;99.90
52895;DHT22;38759;53.396;6.722;2023-04-01T18:49:58;6.00;99.90
52895;DHT22;38759;53.396;6.722;2023-04-01T18:57:50;6.00;99.90
52895;DHT22;38759;53.396;6.722;2023-04-01T19:00:22;5.90;99.90
52895;DHT22;38759;53.396;6.722;2023-04-01T19:05:38;5.90;99.90
52895;DHT22;38759;53.396;6.722;2023-04-01T19:08:28;5.90;99.90
52895;DHT22;38759;53.396;6.722;2023-04-01T19:21:28;5.80;99.90
52895;DHT22;38759;53.396;6.722;2023-04-01T19:34:52;5.70;99.90
52895;DHT22;38759;53.396;6.722;2023-04-01T19:42:52;5.60;99.90
52895;DHT22;38759;53.396;6.722;2023-04-01T19:45:38;5.60;99.90
52895;DHT22;38759;53.396;6.722;2023-04-01T19:48:29;5.60;99.90
52895;DHT22;38759;53.396;6.722;2023-04-01T19:51:09;5.60;99.90
52895;DHT22;38759;53.396;6.722;2023-04-01T19:56:17;5.50;99.90
52895;DHT22;38759;53.396;6.722;2023-04-01T20:01:50;5.50;99.90
52895;DHT22;38759;53.396;6.722;2023-04-01T20:15:38;5.50;99.90
52895;DHT22;38759;53.396;6.722;2023-04-01T20:18:24;5.50;99.90
52895;DHT22;38759;53.396;6.722;2023-04-01T20:20:57;5.40;99.90
52895;DHT22;38759;53.396;6.722;2023-04-01T20:26:11;5.40;99.90
52895;DHT22;38759;53.396;6.722;2023-04-01T20:29:04;5.40;99.90
52895;DHT22;38759;53.396;6.722;2023-04-01T20:31:43;5.40;99.90
52895;DHT22;38759;53.396;6.722;2023-04-01T20:34:33;5.50;99.90
52895;DHT22;38759;53.396;6.722;2023-04-01T20:39:48;5.30;99.90
52895;DHT22;38759;53.396;6.722;2023-04-01T20:45:10;5.20;99.90
52895;DHT22;38759;53.396;6.722;2023-04-01T20:50:52;5.20;99.90
52895;DHT22;38759;53.396;6.722;2023-04-01T21:01:39;5.20;99.90
52895;DHT22;38759;53.396;6.722;2023-04-01T21:10:28;5.10;99.90
52895;DHT22;38759;53.396;6.722;2023-04-01T21:38:16;5.00;99.90
52895;DHT22;38759;53.396;6.722;2023-04-01T21:41:08;5.00;99.90
52895;DHT22;38759;53.396;6.722;2023-04-01T21:44:16;5.00;99.90
52895;DHT22;38759;53.396;6.722;2023-04-01T21:58:27;4.80;99.90
52895;DHT22;38759;53.396;6.722;2023-04-01T22:04:08;4.50;99.90
52895;DHT22;38759;53.396;6.722;2023-04-01T22:06:48;4.50;99.90
52895;DHT22;38759;53.396;6.722;2023-04-01T22:09:18;4.50;99.90
52895;DHT22;38759;53.396;6.722;2023-04-01T22:11:55;4.40;99.90
52895;DHT22;38759;53.396;6.722;2023-04-01T22:14:49;4.40;99.90
52895;DHT22;38759;53.396;6.722;2023-04-01T22:29:00;4.10;99.90
52895;DHT22;38759;53.396;6.722;2023-04-01T22:31:25;4.10;99.90
52895;DHT22;38759;53.396;6.722;2023-04-01T22:34:05;4.00;99.90
52895;DHT22;38759;53.396;6.722;2023-04-01T22:36:49;4.00;99.90
52895;DHT22;38759;53.396;6.722;2023-04-01T22:39:41;4.00;99.90
52895;DHT22;38759;53.396;6.722;2023-04-01T22:48:31;3.80;99.90
52895;DHT22;38759;53.396;6.722;2023-04-01T22:53:51;3.80;99.90
52895;DHT22;38759;53.396;6.722;2023-04-01T22:56:22;3.70;99.90
52895;DHT22;38759;53.396;6.722;2023-04-01T23:01:36;3.60;99.90
52895;DHT22;38759;53.396;6.722;2023-04-01T23:04:05;3.60;99.90
52895;DHT22;38759;53.396;6.722;2023-04-01T23:06:41;3.60;99.90
52895;DHT22;38759;53.396;6.722;2023-04-01T23:09:17;3.60;99.90
52895;DHT22;38759;53.396;6.722;2023-04-01T23:12:01;3.50;99.90
52895;DHT22;38759;53.396;6.722;2023-04-01T23:24:59;3.50;99.90
52895;DHT22;38759;53.396;6.722;2023-04-01T23:29:54;3.40;99.90
52895;DHT22;38759;53.396;6.722;2023-04-01T23:32:23;3.40;99.90
52895;DHT22;38759;53.396;6.722;2023-04-01T23:34:56;3.40;99.90
52895;DHT22;38759;53.396;6.722;2023-04-01T23:37:23;3.40;99.90
52895;DHT22;38759;53.396;6.722;2023-04-01T23:39:52;3.30;99.90
52895;DHT22;38759;53.396;6.722;2023-04-01T23:42:30;3.30;99.90
52895;DHT22;38759;53.396;6.722;2023-04-01T23:45:03;3.30;99.90
52895;DHT22;38759;53.396;6.722;2023-04-01T23:47:34;3.30;99.90
52895;DHT22;38759;53.396;6.722;2023-04-01T23:50:04;3.20;99.90
52895;DHT22;38759;53.396;6.722;2023-04-01T23:52:39;3.20;99.90
52895;DHT22;38759;53.396;6.722;2023-04-01T23:55:13;3.20;99.90
52895;DHT22;38759;53.396;6.722;2023-04-01T23:57:39;3.20;99.90
